createdAt,value
2022-08-04T00:02:25.373Z,100213.44
2022-08-04T00:05:00.987Z,100210.97
2022-08-04T00:07:53.414Z,100217.66
2022-08-04T00:10:22.316Z,100216.19
2022-08-04T00:12:52.043Z,100218.28
2022-08-04T00:15:18.988Z,100218.66
2022-08-04T00:17:49.816Z,100217.28
2022-08-04T00:20:18.926Z,100221.00
2022-08-04T00:22:46.827Z,100223.09
2022-08-04T00:25:13.857Z,100213.13
2022-08-04T00:27:40.803Z,100218.75
2022-08-04T00:30:07.987Z,100218.31
2022-08-04T00:32:34.946Z,100223.72
2022-08-04T00:35:01.747Z,100212.75
2022-08-04T00:37:28.768Z,100219.56
2022-08-04T00:39:56.631Z,100219.22
2022-08-04T00:42:49.490Z,100223.16
2022-08-04T00:45:25.877Z,100216.09
2022-08-04T00:48:15.156Z,100221.91
2022-08-04T00:50:45.825Z,100215.03
2022-08-04T00:53:19.891Z,100226.50
2022-08-04T00:56:18.470Z,100220.28
2022-08-04T00:59:04.119Z,100220.31
2022-08-04T01:01:49.436Z,100225.13
2022-08-04T01:04:42.426Z,100220.53
2022-08-04T01:07:22.499Z,100226.56
2022-08-04T01:10:15.531Z,100223.22
2022-08-04T01:13:15.391Z,100223.69
2022-08-04T01:16:03.312Z,100224.50
2022-08-04T01:18:56.205Z,100225.56
2022-08-04T01:21:56.288Z,100227.22
2022-08-04T01:24:28.409Z,100228.66
2022-08-04T01:27:03.917Z,100233.84
2022-08-04T01:29:50.541Z,100229.06
2022-08-04T01:32:25.464Z,100235.72
2022-08-04T01:34:57.307Z,100230.78
2022-08-04T01:37:57.313Z,100230.78
2022-08-04T01:40:26.856Z,100237.63
2022-08-04T01:42:53.862Z,100235.38
2022-08-04T01:45:20.885Z,100233.25
2022-08-04T01:47:52.146Z,100234.50
2022-08-04T01:50:18.724Z,100223.25
2022-08-04T01:52:50.519Z,100233.66
2022-08-04T01:55:18.200Z,100236.97
2022-08-04T01:57:50.056Z,100236.53
2022-08-04T02:00:21.532Z,100233.41
2022-08-04T02:02:49.663Z,100228.00
2022-08-04T02:05:18.159Z,100232.38
2022-08-04T02:08:05.329Z,100228.19
2022-08-04T02:11:05.078Z,100227.56
2022-08-04T02:13:53.422Z,100226.97
2022-08-04T02:16:29.495Z,100216.38
2022-08-04T02:19:04.484Z,100223.66
2022-08-04T02:21:42.104Z,100221.78
2022-08-04T02:24:14.934Z,100211.81
2022-08-04T02:26:43.357Z,100213.09
2022-08-04T02:29:35.690Z,100210.38
2022-08-04T02:32:07.465Z,100210.44
2022-08-04T02:34:45.936Z,100218.28
2022-08-04T02:37:12.600Z,100214.13
2022-08-04T02:39:49.203Z,100215.78
2022-08-04T02:42:16.802Z,100204.59
2022-08-04T02:44:43.469Z,100208.31
2022-08-04T02:47:11.099Z,100206.66
2022-08-04T02:49:40.568Z,100210.44
2022-08-04T02:52:10.951Z,100201.09
2022-08-04T02:54:45.707Z,100205.44
2022-08-04T02:57:13.455Z,100210.22
2022-08-04T02:59:58.447Z,100209.22
2022-08-04T03:02:47.466Z,100201.75
2022-08-04T03:05:18.659Z,100220.00
2022-08-04T03:07:56.834Z,100217.09
2022-08-04T03:10:23.313Z,100225.00
2022-08-04T03:13:21.427Z,100222.72
2022-08-04T03:16:06.126Z,100213.16
2022-08-04T03:18:47.808Z,100228.53
2022-08-04T03:21:46.132Z,100225.41
2022-08-04T03:24:54.458Z,100230.00
2022-08-04T03:27:37.740Z,100233.94
2022-08-04T03:30:06.851Z,100229.13
2022-08-04T03:32:45.612Z,100233.31
2022-08-04T03:35:54.100Z,100236.84
2022-08-04T03:38:29.440Z,100235.59
2022-08-04T03:41:10.075Z,100238.72
2022-08-04T03:43:57.752Z,100235.38
2022-08-04T03:46:44.312Z,100238.72
2022-08-04T03:49:40.271Z,100244.50
2022-08-04T03:53:01.439Z,100237.88
2022-08-04T03:55:46.201Z,100243.91
2022-08-04T03:58:34.563Z,100243.91
2022-08-04T04:01:45.168Z,100246.19
2022-08-04T04:04:23.753Z,100244.53
2022-08-04T04:07:34.145Z,100247.44
2022-08-04T04:10:34.557Z,100243.69
2022-08-04T04:13:16.277Z,100250.13
2022-08-04T04:15:52.100Z,100253.84
2022-08-04T04:18:48.899Z,100255.50
2022-08-04T04:21:34.390Z,100254.69
2022-08-04T04:24:36.208Z,100249.47
2022-08-04T04:27:09.176Z,100250.28
2022-08-04T04:30:13.198Z,100249.25
2022-08-04T04:32:58.238Z,100253.19
2022-08-04T04:35:34.493Z,100254.41
2022-08-04T04:38:01.392Z,100257.91
2022-08-04T04:40:57.000Z,100261.84
2022-08-04T04:43:50.376Z,100258.06
2022-08-04T04:46:39.817Z,100257.22
2022-08-04T04:49:27.264Z,100258.28
2022-08-04T04:52:08.968Z,100268.00
2022-08-04T04:54:50.094Z,100268.84
2022-08-04T04:57:19.379Z,100275.03
2022-08-04T04:59:50.013Z,100279.56
2022-08-04T05:02:37.332Z,100273.97
2022-08-04T05:05:22.295Z,100286.56
2022-08-04T05:08:43.631Z,100282.38
2022-08-04T05:10:58.099Z,100286.47
2022-08-04T05:14:35.657Z,100287.88
2022-08-04T05:16:19.353Z,100293.00
2022-08-04T05:18:50.093Z,100289.19
2022-08-04T05:21:39.854Z,100289.38
2022-08-04T05:24:09.621Z,100291.56
2022-08-04T05:26:40.984Z,100288.94
2022-08-04T05:29:10.317Z,100291.00
2022-08-04T05:31:39.310Z,100282.31
2022-08-04T05:34:09.623Z,100290.53
2022-08-04T05:36:45.390Z,100282.84
2022-08-04T05:39:16.891Z,100281.78
2022-08-04T05:41:45.696Z,100293.50
2022-08-04T05:44:17.086Z,100300.00
2022-08-04T05:46:54.657Z,100293.94
2022-08-04T05:49:24.122Z,100298.16
2022-08-04T05:51:51.315Z,100302.44
2022-08-04T05:54:18.870Z,100310.31
2022-08-04T05:56:45.497Z,100309.75
2022-08-04T05:59:12.931Z,100318.94
2022-08-04T06:01:55.596Z,100330.47
2022-08-04T06:04:27.175Z,100332.53
2022-08-04T06:06:54.605Z,100347.81
2022-08-04T06:09:21.238Z,100352.81
2022-08-04T06:12:03.583Z,100358.06
2022-08-04T06:14:41.585Z,100357.56
2022-08-04T06:18:32.437Z,100363.22
2022-08-04T06:20:17.874Z,100379.25
2022-08-04T06:22:45.221Z,100380.84
2022-08-04T06:25:15.510Z,100385.50
2022-08-04T06:27:43.345Z,100391.41
2022-08-04T06:30:14.514Z,100389.69
2022-08-04T06:32:48.093Z,100394.00
2022-08-04T06:35:17.860Z,100401.59
2022-08-04T06:37:45.823Z,100396.53
2022-08-04T06:40:31.992Z,100395.97
2022-08-04T06:43:04.715Z,100383.19
2022-08-04T06:45:37.107Z,100386.31
2022-08-04T06:48:05.844Z,100395.44
2022-08-04T06:51:25.817Z,100394.22
2022-08-04T06:53:24.808Z,100390.91
2022-08-04T06:55:52.122Z,100397.28
2022-08-04T06:58:20.737Z,100396.84
2022-08-04T07:00:48.334Z,100399.72
2022-08-04T07:03:16.970Z,100398.72
2022-08-04T07:05:43.776Z,100403.41
2022-08-04T07:08:11.630Z,100396.91
2022-08-04T07:10:39.069Z,100392.44
2022-08-04T07:13:07.409Z,100392.41
2022-08-04T07:15:36.236Z,100407.47
2022-08-04T07:18:04.800Z,100408.41
2022-08-04T07:20:36.184Z,100409.22
2022-08-04T07:23:04.849Z,100409.16
2022-08-04T07:25:59.491Z,100414.16
2022-08-04T07:28:22.685Z,100403.81
2022-08-04T07:30:49.672Z,100412.00
2022-08-04T07:33:17.428Z,100409.56
2022-08-04T07:36:09.598Z,100420.66
2022-08-04T07:38:31.244Z,100414.13
2022-08-04T07:41:00.222Z,100417.19
2022-08-04T07:43:27.698Z,100405.94
2022-08-04T07:45:54.417Z,100406.47
2022-08-04T07:48:23.309Z,100391.84
2022-08-04T07:50:50.559Z,100389.88
2022-08-04T07:53:54.290Z,100377.25
2022-08-04T07:56:05.110Z,100378.22
2022-08-04T07:58:32.115Z,100362.78
2022-08-04T08:00:59.130Z,100365.53
2022-08-04T08:03:26.862Z,100354.41
2022-08-04T08:05:54.754Z,100356.66
2022-08-04T08:08:40.781Z,100356.19
2022-08-04T08:11:08.098Z,100352.81
2022-08-04T08:13:35.325Z,100355.28
2022-08-04T08:16:02.764Z,100355.94
2022-08-04T08:18:30.148Z,100359.41
2022-08-04T08:20:57.110Z,100356.69
2022-08-04T08:23:24.553Z,100361.22
2022-08-04T08:25:51.853Z,100361.91
2022-08-04T08:28:18.489Z,100369.03
2022-08-04T08:30:45.438Z,100355.41
2022-08-04T08:33:19.727Z,100356.13
2022-08-04T08:36:01.956Z,100355.59
2022-08-04T08:38:57.514Z,100356.66
2022-08-04T08:42:06.197Z,100358.13
2022-08-04T08:45:03.939Z,100349.00
2022-08-04T08:48:06.120Z,100358.25
2022-08-04T08:50:52.015Z,100355.78
2022-08-04T08:53:47.616Z,100347.88
2022-08-04T08:56:33.341Z,100345.38
2022-08-04T08:59:27.785Z,100351.88
2022-08-04T09:02:07.231Z,100352.94
2022-08-04T09:04:48.555Z,100352.69
2022-08-04T09:07:53.468Z,100353.34
2022-08-04T09:10:33.107Z,100343.19
2022-08-04T09:13:05.680Z,100344.81
2022-08-04T09:15:33.234Z,100341.50
2022-08-04T09:18:07.822Z,100339.88
2022-08-04T09:20:46.932Z,100344.00
2022-08-04T09:23:20.986Z,100333.31
2022-08-04T09:26:29.682Z,100339.34
2022-08-04T09:29:07.881Z,100342.38
2022-08-04T09:31:51.409Z,100336.59
2022-08-04T09:34:45.490Z,100337.66
2022-08-04T09:37:29.190Z,100337.41
2022-08-04T09:40:04.598Z,100340.75
2022-08-04T09:42:41.772Z,100347.59
2022-08-04T09:45:26.596Z,100341.56
2022-08-04T09:48:00.547Z,100340.97
2022-08-04T09:50:34.928Z,100347.03
2022-08-04T09:54:02.498Z,100339.38
2022-08-04T09:56:58.216Z,100333.63
2022-08-04T09:59:30.707Z,100332.78
2022-08-04T10:02:00.239Z,100333.56
2022-08-04T10:04:29.592Z,100328.94
2022-08-04T10:07:21.660Z,100331.69
2022-08-04T10:10:10.235Z,100328.66
2022-08-04T10:12:51.341Z,100328.34
2022-08-04T10:15:21.347Z,100322.88
2022-08-04T10:18:08.369Z,100328.06
2022-08-04T10:20:55.580Z,100322.88
2022-08-04T10:23:55.866Z,100316.84
2022-08-04T10:26:33.369Z,100316.84
2022-08-04T10:29:11.156Z,100320.97
2022-08-04T10:31:44.441Z,100310.56
2022-08-04T10:34:24.643Z,100314.13
2022-08-04T10:37:05.047Z,100308.09
2022-08-04T10:39:42.270Z,100311.41
2022-08-04T10:42:18.207Z,100300.41
2022-08-04T10:45:15.734Z,100302.56
2022-08-04T10:48:14.253Z,100305.59
2022-08-04T10:50:49.215Z,100295.72
2022-08-04T10:53:21.005Z,100294.34
2022-08-04T10:56:07.477Z,100299.84
2022-08-04T10:58:47.763Z,100291.06
2022-08-04T11:02:00.795Z,100285.53
2022-08-04T11:04:31.738Z,100284.47
2022-08-04T11:06:59.657Z,100289.97
2022-08-04T11:09:27.167Z,100283.69
2022-08-04T11:12:02.022Z,100283.94
2022-08-04T11:14:38.834Z,100282.84
2022-08-04T11:17:08.484Z,100284.16
2022-08-04T11:19:52.776Z,100278.44
2022-08-04T11:22:25.972Z,100280.91
2022-08-04T11:25:05.510Z,100287.78
2022-08-04T11:27:41.149Z,100281.75
2022-08-04T11:30:09.707Z,100272.44
2022-08-04T11:32:46.386Z,100278.47
2022-08-04T11:35:19.537Z,100284.44
2022-08-04T11:37:50.444Z,100281.66
2022-08-04T11:40:23.465Z,100283.31
2022-08-04T11:43:02.685Z,100282.19
2022-08-04T11:45:37.736Z,100282.25
2022-08-04T11:48:10.491Z,100273.47
2022-08-04T11:50:42.342Z,100276.72
2022-08-04T11:53:15.653Z,100272.34
2022-08-04T11:56:09.136Z,100276.44
2022-08-04T11:58:30.645Z,100270.31
2022-08-04T12:01:20.044Z,100272.22
2022-08-04T12:04:06.033Z,100269.50
2022-08-04T12:07:30.099Z,100268.38
2022-08-04T12:10:41.109Z,100271.19
2022-08-04T12:13:28.637Z,100273.91
2022-08-04T12:16:05.864Z,100275.03
2022-08-04T12:18:40.634Z,100266.53
2022-08-04T12:21:26.653Z,100269.53
2022-08-04T12:24:02.554Z,100263.16
2022-08-04T12:26:35.394Z,100266.66
2022-08-04T12:29:10.977Z,100263.19
2022-08-04T12:31:49.683Z,100265.53
2022-08-04T12:34:30.927Z,100263.84
2022-08-04T12:37:38.820Z,100260.50
2022-08-04T12:40:28.856Z,100253.69
2022-08-04T12:43:01.990Z,100245.78
2022-08-04T12:45:29.509Z,100251.16
2022-08-04T12:47:58.172Z,100239.13
2022-08-04T12:50:25.417Z,100239.25
2022-08-04T12:53:03.530Z,100236.25
2022-08-04T12:55:31.867Z,100237.66
2022-08-04T12:57:59.013Z,100237.47
2022-08-04T13:00:40.001Z,100232.75
2022-08-04T13:03:11.501Z,100246.78
2022-08-04T13:05:40.866Z,100234.72
2022-08-04T13:08:09.375Z,100243.78
2022-08-04T13:10:45.229Z,100234.53
2022-08-04T13:13:15.564Z,100234.91
2022-08-04T13:15:47.489Z,100232.56
2022-08-04T13:18:28.950Z,100229.97
2022-08-04T13:21:22.843Z,100228.81
2022-08-04T13:24:10.293Z,100224.72
2022-08-04T13:26:55.305Z,100221.19
2022-08-04T13:29:58.948Z,100220.06
2022-08-04T13:32:11.632Z,100222.69
2022-08-04T13:34:41.435Z,100223.72
2022-08-04T13:37:20.869Z,100210.78
2022-08-04T13:39:55.993Z,100208.16
2022-08-04T13:42:24.961Z,100214.44
2022-08-04T13:44:57.828Z,100210.44
2022-08-04T13:47:30.916Z,100214.59
2022-08-04T13:50:26.306Z,100208.44
2022-08-04T13:52:54.354Z,100207.69
2022-08-04T13:55:35.777Z,100218.44
2022-08-04T13:58:07.635Z,100199.63
2022-08-04T14:01:00.192Z,100198.34
2022-08-04T14:03:54.160Z,100197.88
2022-08-04T14:06:25.529Z,100201.03
2022-08-04T14:08:53.666Z,100194.00
2022-08-04T14:12:09.846Z,100191.94
2022-08-04T14:14:26.762Z,100197.50
2022-08-04T14:17:20.350Z,100187.69
2022-08-04T14:19:48.573Z,100193.44
2022-08-04T14:22:27.382Z,100194.78
2022-08-04T14:25:16.117Z,100183.03
2022-08-04T14:27:48.837Z,100188.75
2022-08-04T14:30:36.288Z,100182.91
2022-08-04T14:34:00.474Z,100182.22
2022-08-04T14:36:01.756Z,100183.50
2022-08-04T14:38:44.233Z,100180.69
2022-08-04T14:41:10.897Z,100181.09
2022-08-04T14:43:45.125Z,100180.84
2022-08-04T14:46:12.854Z,100190.81
2022-08-04T14:48:47.053Z,100180.84
2022-08-04T14:51:16.196Z,100172.59
2022-08-04T14:53:47.634Z,100174.13
2022-08-04T14:56:37.516Z,100173.09
2022-08-04T14:59:08.772Z,100177.06
2022-08-04T15:01:36.771Z,100166.94
2022-08-04T15:04:04.537Z,100175.88
2022-08-04T15:06:33.228Z,100170.72
2022-08-04T15:09:07.075Z,100167.91
2022-08-04T15:11:38.942Z,100166.13
2022-08-04T15:14:08.649Z,100172.16
2022-08-04T15:16:55.413Z,100167.28
2022-08-04T15:19:22.678Z,100152.41
2022-08-04T15:21:49.672Z,100160.53
2022-08-04T15:24:16.329Z,100164.88
2022-08-04T15:26:48.725Z,100155.13
2022-08-04T15:29:28.933Z,100158.88
2022-08-04T15:32:07.864Z,100149.53
2022-08-04T15:34:52.195Z,100152.81
2022-08-04T15:37:27.269Z,100150.38
2022-08-04T15:40:00.264Z,100158.22
2022-08-04T15:43:08.776Z,100146.84
2022-08-04T15:46:37.102Z,100147.38
2022-08-04T15:48:35.332Z,100146.75
2022-08-04T15:51:08.475Z,100146.22
2022-08-04T15:54:02.841Z,100150.63
2022-08-04T15:56:27.767Z,100147.16
2022-08-04T15:58:55.432Z,100153.69
2022-08-04T16:01:22.107Z,100148.34
2022-08-04T16:03:59.912Z,100150.81
2022-08-04T16:06:29.498Z,100144.41
2022-08-04T16:09:01.538Z,100142.28
2022-08-04T16:11:33.441Z,100137.31
2022-08-04T16:14:02.052Z,100139.69
2022-08-04T16:16:38.640Z,100135.69
2022-08-04T16:19:06.184Z,100140.78
2022-08-04T16:21:47.168Z,100136.75
2022-08-04T16:24:22.324Z,100136.13
2022-08-04T16:26:56.266Z,100132.81
2022-08-04T16:29:23.002Z,100133.16
2022-08-04T16:32:05.023Z,100134.75
2022-08-04T16:34:48.458Z,100134.72
2022-08-04T16:37:19.058Z,100131.72
2022-08-04T16:39:50.786Z,100127.34
2022-08-04T16:42:33.004Z,100122.38
2022-08-04T16:45:08.273Z,100122.13
2022-08-04T16:47:50.033Z,100119.44
2022-08-04T16:50:18.065Z,100119.75
2022-08-04T16:52:49.664Z,100118.63
2022-08-04T16:55:18.158Z,100124.66
2022-08-04T16:57:48.586Z,100125.78
2022-08-04T17:00:15.735Z,100117.56
2022-08-04T17:02:43.478Z,100115.97
2022-08-04T17:05:39.727Z,100123.81
2022-08-04T17:10:55.133Z,100118.66
2022-08-04T17:14:03.634Z,100121.97
2022-08-04T17:16:21.146Z,100116.19
2022-08-04T17:18:50.202Z,100110.19
2022-08-04T17:21:20.000Z,100107.44
2022-08-04T17:24:12.705Z,100109.09
2022-08-04T17:26:51.576Z,100118.38
2022-08-04T17:29:21.570Z,100113.94
2022-08-04T17:31:48.210Z,100115.06
2022-08-04T17:34:16.790Z,100116.16
2022-08-04T17:36:46.006Z,100114.25
2022-08-04T17:39:21.429Z,100114.50
2022-08-04T17:41:48.883Z,100111.28
2022-08-04T17:44:16.702Z,100112.31
2022-08-04T17:46:45.702Z,100110.66
2022-08-04T17:49:18.611Z,100118.84
2022-08-04T17:52:06.564Z,100119.81
2022-08-04T17:54:39.347Z,100116.91
2022-08-04T17:57:20.050Z,100116.53
2022-08-04T17:59:58.507Z,100117.94
2022-08-04T18:05:53.979Z,100112.78
2022-08-04T18:08:39.427Z,100123.09
2022-08-04T18:11:02.038Z,100122.03
2022-08-04T18:13:29.223Z,100124.31
2022-08-04T18:16:06.193Z,100121.72
2022-08-04T18:18:41.299Z,100124.31
2022-08-04T18:21:15.837Z,100125.78
2022-08-04T18:23:51.083Z,100124.41
2022-08-04T18:26:18.200Z,100115.78
2022-08-04T18:28:50.659Z,100123.97
2022-08-04T18:31:17.154Z,100118.09
2022-08-04T18:33:43.815Z,100129.19
2022-08-04T18:36:33.962Z,100121.59
2022-08-04T18:39:07.907Z,100124.53
2022-08-04T18:42:01.649Z,100126.50
2022-08-04T18:44:29.140Z,100126.22
2022-08-04T18:46:56.642Z,100128.53
2022-08-04T18:50:58.603Z,100124.19
2022-08-04T18:52:14.905Z,100127.38
2022-08-04T18:54:42.139Z,100131.25
2022-08-04T18:57:32.647Z,100131.53
2022-08-04T18:59:55.938Z,100138.13
2022-08-04T19:02:22.818Z,100132.53
2022-08-04T19:04:53.215Z,100135.06
2022-08-04T19:07:28.831Z,100138.78
2022-08-04T19:09:59.366Z,100138.50
2022-08-04T19:12:28.223Z,100136.44
2022-08-04T19:14:58.795Z,100136.94
2022-08-04T19:17:52.842Z,100133.94
2022-08-04T19:20:25.490Z,100136.47
2022-08-04T19:24:28.871Z,100137.78
2022-08-04T19:26:01.115Z,100137.63
2022-08-04T19:28:29.291Z,100139.22
2022-08-04T19:30:58.062Z,100135.66
2022-08-04T19:33:25.267Z,100138.16
2022-08-04T19:35:52.589Z,100137.34
2022-08-04T19:38:20.601Z,100140.78
2022-08-04T19:40:50.665Z,100139.38
2022-08-04T19:43:20.732Z,100144.09
2022-08-04T19:45:49.694Z,100136.75
2022-08-04T19:48:19.517Z,100138.66
2022-08-04T19:50:46.550Z,100135.59
2022-08-04T19:53:19.022Z,100134.41
2022-08-04T19:55:49.793Z,100143.25
2022-08-04T19:58:17.032Z,100138.09
2022-08-04T20:00:44.777Z,100131.47
2022-08-04T20:03:20.095Z,100130.66
2022-08-04T20:05:53.860Z,100121.69
2022-08-04T20:08:24.176Z,100126.22
2022-08-04T20:10:51.982Z,100128.13
2022-08-04T20:13:19.834Z,100133.31
2022-08-04T20:15:55.454Z,100132.22
2022-08-04T20:18:36.101Z,100128.56
2022-08-04T20:21:19.513Z,100136.66
2022-08-04T20:23:51.399Z,100146.59
2022-08-04T20:26:18.135Z,100143.56
2022-08-04T20:28:45.922Z,100147.41
2022-08-04T20:31:18.747Z,100152.69
2022-08-04T20:33:49.265Z,100142.13
2022-08-04T20:36:21.957Z,100142.81
2022-08-04T20:38:54.728Z,100151.03
2022-08-04T20:41:22.271Z,100150.34
2022-08-04T20:43:50.077Z,100146.22
2022-08-04T20:46:28.588Z,100152.22
2022-08-04T20:48:56.389Z,100145.25
2022-08-04T20:51:31.648Z,100146.22
2022-08-04T20:54:01.091Z,100146.34
2022-08-04T20:56:31.283Z,100142.47
2022-08-04T20:58:59.641Z,100147.03
2022-08-04T21:01:27.242Z,100148.41
2022-08-04T21:04:27.977Z,100149.81
2022-08-04T21:06:57.386Z,100148.03
2022-08-04T21:09:26.706Z,100144.25
2022-08-04T21:12:05.064Z,100142.28
2022-08-04T21:14:31.596Z,100142.75
2022-08-04T21:16:59.290Z,100151.41
2022-08-04T21:19:27.527Z,100147.94
2022-08-04T21:21:54.680Z,100151.63
2022-08-04T21:24:26.023Z,100142.13
2022-08-04T21:26:56.581Z,100141.53
2022-08-04T21:29:24.372Z,100148.91
2022-08-04T21:32:07.539Z,100143.50
2022-08-04T21:34:39.038Z,100135.88
2022-08-04T21:37:07.152Z,100146.59
2022-08-04T21:39:50.704Z,100148.53
2022-08-04T21:42:29.011Z,100141.38
2022-08-04T21:44:57.681Z,100147.28
2022-08-04T21:47:24.358Z,100146.06
2022-08-04T21:49:56.591Z,100140.03
2022-08-04T21:52:24.466Z,100143.88
2022-08-04T21:54:54.222Z,100140.50
2022-08-04T21:57:22.765Z,100146.97
2022-08-04T21:59:52.043Z,100141.69
2022-08-04T22:02:18.652Z,100148.84
2022-08-04T22:04:45.325Z,100138.91
2022-08-04T22:07:12.287Z,100144.13
2022-08-04T22:09:45.673Z,100132.00
2022-08-04T22:12:27.202Z,100133.28
2022-08-04T22:17:46.200Z,100139.97
2022-08-04T22:20:27.628Z,100135.03
2022-08-04T22:23:00.145Z,100137.50
2022-08-04T22:25:33.306Z,100137.00
2022-08-04T22:28:07.719Z,100135.31
2022-08-04T22:30:37.460Z,100133.13
2022-08-04T22:33:07.735Z,100133.97
2022-08-04T22:35:43.149Z,100123.44
2022-08-04T22:38:26.853Z,100124.63
2022-08-04T22:41:03.472Z,100128.31
2022-08-04T22:43:31.834Z,100124.34
2022-08-04T22:45:59.719Z,100129.69
2022-08-04T22:48:28.383Z,100129.00
2022-08-04T22:50:58.820Z,100127.56
2022-08-04T22:53:25.280Z,100129.22
2022-08-04T22:56:06.880Z,100124.72
2022-08-04T22:58:36.246Z,100117.41
2022-08-04T23:01:07.536Z,100121.78
2022-08-04T23:03:37.548Z,100125.28
2022-08-04T23:06:07.124Z,100120.72
2022-08-04T23:08:37.844Z,100115.25
2022-08-04T23:11:08.169Z,100112.13
2022-08-04T23:13:35.933Z,100104.84
2022-08-04T23:16:10.267Z,100110.72
2022-08-04T23:18:40.248Z,100097.16
2022-08-04T23:21:10.218Z,100100.69
2022-08-04T23:23:38.133Z,100099.66
2022-08-04T23:26:13.531Z,100098.28
2022-08-04T23:28:40.381Z,100094.72
2022-08-04T23:31:10.319Z,100093.69
2022-08-04T23:33:50.809Z,100092.72
2022-08-04T23:36:29.458Z,100089.16
2022-08-04T23:38:59.895Z,100086.13
2022-08-04T23:41:53.767Z,100089.31
2022-08-04T23:44:17.533Z,100088.63
2022-08-04T23:46:51.103Z,100073.75
2022-08-04T23:49:20.020Z,100074.22
2022-08-04T23:51:49.666Z,100074.34
2022-08-04T23:54:16.318Z,100079.81
2022-08-04T23:56:52.568Z,100076.03
2022-08-04T23:59:49.149Z,100080.78
